Time;durP1;ratioP1;P1;durP2;ratioP2;P2;SDS_P1;SDS_P2;PMS_P1;PMS_P2;Temp;Humidity;BMP_temperature;BMP_pressure;BME280_temperature;BME280_humidity;BME280_pressure;Samples;Min_cycle;Max_cycle;Signal;HPM_P1;HPM_P2
2022/02/28 05:00:30;;;;;;;23.27;12.65;;;0.30;99.90;;;;;;5817479;23;21537;-71
2022/02/28 05:02:56;;;;;;;25.52;13.85;;;0.40;99.90;;;;;;4930925;29;20578;-71
2022/02/28 05:05:23;;;;;;;34.45;15.85;;;0.30;99.90;;;;;;4928041;29;20260;-71
2022/02/28 05:07:50;;;;;;;26.35;13.82;;;0.30;99.90;;;;;;4936398;29;20361;-71
2022/02/28 05:10:17;;;;;;;35.72;16.27;;;0.30;99.90;;;;;;4930444;29;20198;-70
2022/02/28 05:12:43;;;;;;;34.65;15.95;;;0.30;99.90;;;;;;4955539;28;20276;-70
2022/02/28 05:15:10;;;;;;;28.20;15.48;;;0.30;99.90;;;;;;4949367;28;20206;-70
2022/02/28 05:17:39;;;;;;;30.52;16.23;;;0.30;99.90;;;;;;4935287;29;20210;-70
2022/02/28 05:20:07;;;;;;;30.23;16.27;;;0.20;99.90;;;;;;4918164;29;20544;-70
2022/02/28 05:22:34;;;;;;;27.13;14.45;;;0.20;99.90;;;;;;4916803;29;20238;-70
2022/02/28 05:25:00;;;;;;;36.35;17.60;;;0.20;99.90;;;;;;4933513;29;20252;-70
2022/02/28 05:27:27;;;;;;;36.60;16.77;;;0.20;99.90;;;;;;4954956;28;20327;-70
2022/02/28 05:29:54;;;;;;;29.98;15.55;;;0.20;99.90;;;;;;4928496;28;20278;-70
2022/02/28 05:32:20;;;;;;;28.13;13.40;;;0.20;99.90;;;;;;4954665;28;20279;-70
2022/02/28 05:34:49;;;;;;;32.35;16.25;;;0.20;99.90;;;;;;4929045;28;20327;-70
2022/02/28 05:37:15;;;;;;;32.30;15.60;;;0.20;99.90;;;;;;4967936;23;20280;-67
2022/02/28 05:39:43;;;;;;;33.53;15.55;;;0.10;99.90;;;;;;4961117;28;20212;-71
2022/02/28 05:42:09;;;;;;;26.33;13.50;;;0.10;99.90;;;;;;4956158;28;20209;-68
2022/02/28 05:44:36;;;;;;;35.67;17.45;;;0.10;99.90;;;;;;4956707;28;20205;-69
2022/02/28 05:47:03;;;;;;;27.85;13.40;;;0.10;99.90;;;;;;4968768;28;20205;-69
2022/02/28 05:49:30;;;;;;;35.75;18.70;;;0.10;99.90;;;;;;4946948;28;20206;-69
2022/02/28 05:51:58;;;;;;;32.55;17.00;;;0.10;99.90;;;;;;4941512;29;20222;-69
2022/02/28 05:54:25;;;;;;;39.60;17.83;;;0.00;99.90;;;;;;4946600;28;20216;-69
2022/02/28 05:56:51;;;;;;;32.08;13.05;;;0.00;99.90;;;;;;4948174;29;20216;-69
2022/02/28 05:59:18;;;;;;;32.97;15.20;;;0.00;99.90;;;;;;4953415;28;20210;-69
2022/02/28 06:01:45;;;;;;;30.08;13.82;;;-0.10;99.90;;;;;;4942896;28;20229;-69
2022/02/28 06:04:11;;;;;;;25.27;14.20;;;-0.10;99.90;;;;;;4935121;29;20225;-69
2022/02/28 06:06:38;;;;;;;44.95;18.73;;;-0.10;99.90;;;;;;4944934;29;20556;-69
2022/02/28 06:09:06;;;;;;;13.57;7.32;;;-0.10;99.90;;;;;;4946650;28;20746;-69
2022/02/28 06:11:33;;;;;;;37.85;16.33;;;-0.10;99.90;;;;;;4942637;29;20224;-69
2022/02/28 06:14:00;;;;;;;31.70;16.20;;;-0.10;99.90;;;;;;4953833;28;20627;-69
2022/02/28 06:16:27;;;;;;;27.33;13.05;;;-0.10;99.90;;;;;;4946695;28;20240;-69
2022/02/28 06:18:54;;;;;;;40.22;17.17;;;-0.10;99.90;;;;;;4934866;29;20330;-69
2022/02/28 06:21:20;;;;;;;34.97;14.32;;;0.00;99.90;;;;;;4948075;29;20522;-68
2022/02/28 06:23:47;;;;;;;38.65;15.85;;;0.00;99.90;;;;;;4953100;28;20216;-69
2022/02/28 06:26:15;;;;;;;30.92;18.98;;;0.00;99.90;;;;;;4949395;28;20208;-69
2022/02/28 06:28:42;;;;;;;22.70;11.18;;;0.00;99.90;;;;;;4952090;28;20221;-68
2022/02/28 06:31:09;;;;;;;35.17;16.77;;;0.00;99.90;;;;;;4942224;28;20255;-69
2022/02/28 06:33:36;;;;;;;42.10;18.38;;;0.00;99.90;;;;;;4935041;29;20205;-68
2022/02/28 06:36:03;;;;;;;39.17;17.92;;;0.00;99.90;;;;;;4943781;29;20606;-69
2022/02/28 06:38:30;;;;;;;29.83;14.35;;;0.00;99.90;;;;;;4953236;28;20694;-69
2022/02/28 06:40:57;;;;;;;35.95;16.85;;;0.00;99.90;;;;;;4944972;28;20221;-69
2022/02/28 06:43:26;;;;;;;39.03;17.40;;;0.00;99.90;;;;;;4949008;28;20213;-69
2022/02/28 06:45:53;;;;;;;38.58;15.73;;;0.10;99.90;;;;;;4940837;29;20549;-69
2022/02/28 06:48:20;;;;;;;33.15;16.13;;;0.10;99.90;;;;;;4942396;28;20230;-69
2022/02/28 06:50:47;;;;;;;36.95;18.30;;;0.00;99.90;;;;;;4939966;29;20201;-69
2022/02/28 06:53:18;;;;;;;23.58;14.05;;;0.10;99.90;;;;;;4943339;28;20236;-69
2022/02/28 06:55:45;;;;;;;42.03;14.82;;;0.10;99.90;;;;;;4937571;29;20216;-69
2022/02/28 06:58:12;;;;;;;38.83;18.23;;;0.10;99.90;;;;;;4952664;28;20227;-69
2022/02/28 07:00:40;;;;;;;40.92;16.77;;;0.10;99.90;;;;;;4949557;28;20210;-69
2022/02/28 07:03:08;;;;;;;41.72;18.23;;;0.10;99.90;;;;;;4945425;28;20202;-69
2022/02/28 07:05:35;;;;;;;29.85;14.70;;;0.20;99.90;;;;;;4952019;28;20296;-69
2022/02/28 07:08:02;;;;;;;36.92;15.68;;;0.20;99.90;;;;;;4952630;28;20665;-69
2022/02/28 07:10:29;;;;;;;36.67;16.48;;;0.30;99.90;;;;;;4937523;28;20209;-69
2022/02/28 07:12:55;;;;;;;44.47;20.77;;;0.30;99.90;;;;;;4934013;29;20324;-69
2022/02/28 07:15:23;;;;;;;27.48;12.57;;;0.30;99.90;;;;;;4943597;29;20265;-69
2022/02/28 07:17:51;;;;;;;38.85;17.85;;;0.40;99.90;;;;;;4933766;29;20276;-69
2022/02/28 07:20:18;;;;;;;32.50;16.40;;;0.40;99.90;;;;;;4945543;29;20553;-68
2022/02/28 07:22:45;;;;;;;37.33;15.82;;;0.40;99.90;;;;;;4952971;28;20555;-68
2022/02/28 07:25:11;;;;;;;40.80;17.65;;;0.40;99.90;;;;;;4941663;28;20210;-68
2022/02/28 07:27:38;;;;;;;29.10;16.60;;;0.40;99.90;;;;;;4933541;29;20238;-69
2022/02/28 07:30:06;;;;;;;32.58;13.32;;;0.40;99.90;;;;;;4939267;29;20662;-68
2022/02/28 07:32:32;;;;;;;37.58;18.48;;;0.50;99.90;;;;;;4934605;28;20230;-68
2022/02/28 07:35:00;;;;;;;27.90;13.65;;;0.50;99.90;;;;;;4933830;29;20682;-68
2022/02/28 07:37:27;;;;;;;31.17;16.90;;;0.50;99.90;;;;;;4933808;29;20615;-68
2022/02/28 07:39:54;;;;;;;39.13;17.23;;;0.50;99.90;;;;;;4941957;28;20277;-70
2022/02/28 07:42:20;;;;;;;30.52;14.05;;;0.60;99.90;;;;;;4933493;29;20218;-68
2022/02/28 07:44:47;;;;;;;33.47;18.23;;;0.60;99.90;;;;;;4947798;29;20209;-68
2022/02/28 07:47:14;;;;;;;31.33;16.08;;;0.60;99.90;;;;;;4939787;28;20226;-68
2022/02/28 07:49:42;;;;;;;41.33;17.30;;;0.70;99.90;;;;;;4941859;29;20255;-68
2022/02/28 07:52:11;;;;;;;33.83;16.45;;;0.70;99.90;;;;;;4952982;28;20752;-68
2022/02/28 07:54:37;;;;;;;37.80;17.10;;;0.80;99.90;;;;;;4939992;28;20619;-68
2022/02/28 07:57:04;;;;;;;32.83;16.08;;;0.90;99.90;;;;;;4950542;29;20233;-68
2022/02/28 07:59:31;;;;;;;22.63;10.00;;;0.90;99.90;;;;;;4950279;28;20300;-69
2022/02/28 08:01:58;;;;;;;35.67;16.45;;;1.00;99.90;;;;;;4948404;28;20198;-69
2022/02/28 08:04:24;;;;;;;26.95;13.18;;;0.90;99.90;;;;;;4946984;29;20209;-69
2022/02/28 08:06:51;;;;;;;35.90;17.02;;;0.90;99.90;;;;;;4945265;28;20217;-69
2022/02/28 08:09:21;;;;;;;24.02;13.10;;;0.90;99.90;;;;;;4947721;28;20348;-69
2022/02/28 08:11:48;;;;;;;33.58;15.23;;;0.90;99.90;;;;;;4937065;29;20252;-69
2022/02/28 08:14:15;;;;;;;29.50;13.07;;;0.90;99.90;;;;;;4934222;29;20214;-69
2022/02/28 08:16:42;;;;;;;24.50;14.10;;;0.90;99.90;;;;;;4939099;29;20209;-67
2022/02/28 08:19:08;;;;;;;35.85;15.65;;;0.80;99.90;;;;;;4949930;28;20225;-67
2022/02/28 08:21:35;;;;;;;30.30;15.05;;;0.80;99.90;;;;;;4935902;29;20647;-67
2022/02/28 08:24:02;;;;;;;23.55;14.60;;;0.90;99.90;;;;;;4942495;29;20213;-68
2022/02/28 08:26:30;;;;;;;30.52;14.73;;;1.00;99.90;;;;;;4932936;29;20218;-68
2022/02/28 08:28:56;;;;;;;26.15;12.20;;;1.10;99.90;;;;;;4942018;28;20233;-67
2022/02/28 08:31:23;;;;;;;36.03;14.82;;;1.10;99.90;;;;;;4947003;29;20202;-67
2022/02/28 08:33:51;;;;;;;28.60;13.25;;;1.10;99.90;;;;;;4950839;28;20532;-68
2022/02/28 08:36:18;;;;;;;27.50;14.10;;;1.10;99.90;;;;;;4941628;28;20331;-68
2022/02/28 08:38:45;;;;;;;29.58;13.52;;;1.20;99.90;;;;;;4947697;28;20616;-68
2022/02/28 08:41:12;;;;;;;31.60;13.68;;;1.20;99.90;;;;;;4950912;28;20228;-69
2022/02/28 08:43:40;;;;;;;32.38;15.68;;;1.20;99.90;;;;;;4948257;28;20326;-69
2022/02/28 08:46:08;;;;;;;29.15;14.65;;;1.30;99.90;;;;;;4937276;28;20214;-68
2022/02/28 08:48:35;;;;;;;20.83;11.70;;;1.30;99.90;;;;;;4933429;29;20226;-69
2022/02/28 08:51:02;;;;;;;28.55;15.65;;;1.40;99.90;;;;;;4944936;28;20217;-68
2022/02/28 08:53:29;;;;;;;24.10;12.38;;;1.40;99.90;;;;;;4944766;28;20281;-68
2022/02/28 08:55:56;;;;;;;19.75;10.98;;;1.50;99.90;;;;;;4941073;29;20205;-68
2022/02/28 08:58:23;;;;;;;25.80;14.15;;;1.40;99.90;;;;;;4955206;28;20288;-68
2022/02/28 09:00:52;;;;;;;26.23;13.13;;;1.50;99.90;;;;;;4945732;28;20213;-68
2022/02/28 09:03:18;;;;;;;20.00;11.27;;;1.60;99.90;;;;;;4936335;29;20718;-68
2022/02/28 09:05:45;;;;;;;25.00;12.55;;;1.60;99.90;;;;;;4941348;29;20217;-68
2022/02/28 09:08:12;;;;;;;18.42;9.40;;;1.70;99.90;;;;;;4936168;29;20663;-68
2022/02/28 09:10:38;;;;;;;19.48;11.02;;;1.70;99.90;;;;;;4937650;29;20197;-68
2022/02/28 09:13:05;;;;;;;24.73;13.48;;;1.70;99.90;;;;;;4954742;28;20676;-68
2022/02/28 09:15:35;;;;;;;27.40;13.77;;;1.80;99.90;;;;;;4953306;28;20268;-68
2022/02/28 09:18:03;;;;;;;25.17;13.73;;;1.90;99.90;;;;;;4946321;28;20230;-68
2022/02/28 09:20:30;;;;;;;17.05;9.65;;;2.00;99.90;;;;;;4936072;29;20217;-68
2022/02/28 09:22:56;;;;;;;14.65;10.18;;;2.00;99.90;;;;;;4937111;29;20202;-68
2022/02/28 09:25:24;;;;;;;21.75;10.77;;;2.10;99.90;;;;;;4941933;28;20698;-68
2022/02/28 09:27:51;;;;;;;19.80;11.30;;;2.10;99.90;;;;;;4936348;29;20229;-68
2022/02/28 09:30:17;;;;;;;23.45;13.57;;;2.20;99.90;;;;;;4935002;29;20249;-68
2022/02/28 09:32:44;;;;;;;15.32;8.57;;;2.30;99.90;;;;;;4951902;29;20221;-68
2022/02/28 09:35:12;;;;;;;18.33;10.18;;;2.40;99.90;;;;;;4953002;28;20213;-68
2022/02/28 09:37:39;;;;;;;23.15;11.85;;;2.40;99.90;;;;;;4945441;29;20551;-68
2022/02/28 09:40:07;;;;;;;25.70;12.18;;;2.50;99.90;;;;;;4952824;28;20264;-68
2022/02/28 09:42:35;;;;;;;21.52;11.55;;;2.60;99.90;;;;;;4954055;28;20628;-68
2022/02/28 09:45:03;;;;;;;18.63;11.18;;;2.60;99.90;;;;;;4954081;28;20562;-68
2022/02/28 09:47:30;;;;;;;24.80;12.40;;;2.70;99.90;;;;;;4943715;28;20300;-68
2022/02/28 09:49:57;;;;;;;26.55;13.23;;;2.80;99.90;;;;;;4947241;29;20217;-68
2022/02/28 09:52:25;;;;;;;23.40;12.55;;;2.80;99.90;;;;;;4952988;28;20221;-68
2022/02/28 09:54:52;;;;;;;25.50;13.80;;;2.90;99.90;;;;;;4948666;28;20210;-68
2022/02/28 09:57:22;;;;;;;18.05;11.05;;;3.00;99.90;;;;;;4942114;28;20737;-68
2022/02/28 09:59:49;;;;;;;27.70;12.95;;;3.10;99.90;;;;;;4942515;28;20213;-68
2022/02/28 10:02:16;;;;;;;16.90;11.82;;;3.10;99.90;;;;;;4940809;29;20288;-68
2022/02/28 10:04:43;;;;;;;17.83;11.60;;;3.10;99.90;;;;;;4953282;28;20228;-68
2022/02/28 10:07:20;;;;;;;25.10;11.50;;;3.20;99.90;;;;;;4953192;28;20701;-68
2022/02/28 10:09:51;;;;;;;18.75;11.45;;;3.20;99.90;;;;;;4944328;28;20288;-68
2022/02/28 10:12:18;;;;;;;21.02;12.68;;;3.30;99.90;;;;;;4944552;29;20599;-67
2022/02/28 10:14:45;;;;;;;21.52;10.85;;;3.40;99.90;;;;;;4934788;29;20272;-67
2022/02/28 10:17:13;;;;;;;17.90;11.80;;;3.50;99.90;;;;;;4939245;29;20299;-67
2022/02/28 10:19:40;;;;;;;16.42;11.30;;;3.50;99.90;;;;;;4943021;29;20207;-67
2022/02/28 10:22:07;;;;;;;17.52;9.77;;;3.60;99.90;;;;;;4937844;28;20243;-68
2022/02/28 10:24:36;;;;;;;16.88;10.32;;;3.70;99.90;;;;;;4935868;29;20690;-68
2022/02/28 10:27:06;;;;;;;18.90;10.20;;;3.80;99.90;;;;;;4943239;28;20211;-68
2022/02/28 10:29:34;;;;;;;12.63;8.82;;;3.80;99.90;;;;;;4941912;28;20201;-68
2022/02/28 10:32:03;;;;;;;15.20;10.25;;;3.90;99.90;;;;;;4946326;28;20209;-68
2022/02/28 10:34:31;;;;;;;14.32;8.52;;;3.90;99.90;;;;;;4938540;28;20202;-68
2022/02/28 10:37:06;;;;;;;15.60;8.50;;;4.00;99.90;;;;;;4943942;29;20815;-68
2022/02/28 10:39:35;;;;;;;13.27;9.20;;;4.00;99.90;;;;;;4939352;29;20211;-68
2022/02/28 10:42:08;;;;;;;12.48;8.05;;;4.00;99.90;;;;;;4944154;28;20205;-68
2022/02/28 10:44:36;;;;;;;12.95;6.90;;;4.10;99.90;;;;;;4941300;29;20201;-68
2022/02/28 10:47:05;;;;;;;12.38;7.05;;;4.10;99.90;;;;;;4952670;28;20566;-68
2022/02/28 10:49:34;;;;;;;13.43;9.27;;;4.10;99.90;;;;;;4951894;28;20236;-69
2022/02/28 10:52:03;;;;;;;18.17;9.55;;;4.20;99.90;;;;;;4952235;28;20308;-68
2022/02/28 10:54:31;;;;;;;16.02;9.80;;;4.20;99.90;;;;;;4951871;28;20676;-68
2022/02/28 10:57:01;;;;;;;17.52;9.60;;;4.10;99.90;;;;;;4935128;28;20726;-68
2022/02/28 10:59:32;;;;;;;13.30;10.07;;;4.10;99.90;;;;;;4933308;29;20213;-69
2022/02/28 11:01:59;;;;;;;14.32;7.38;;;4.10;99.90;;;;;;4950741;29;20831;-68
2022/02/28 11:04:31;;;;;;;15.27;8.85;;;4.20;99.90;;;;;;4944025;28;20202;-68
2022/02/28 11:06:57;;;;;;;15.45;9.50;;;4.30;99.90;;;;;;4947465;29;20201;-68
2022/02/28 11:09:35;;;;;;;16.88;10.45;;;4.30;99.90;;;;;;4938866;28;20307;-68
2022/02/28 11:12:19;;;;;;;19.13;10.77;;;4.40;99.90;;;;;;4939678;29;20210;-68
2022/02/28 11:14:48;;;;;;;14.07;9.55;;;4.50;99.90;;;;;;4935490;29;20210;-67
2022/02/28 11:17:17;;;;;;;16.23;10.32;;;4.50;99.90;;;;;;4938988;28;20230;-68
2022/02/28 11:19:44;;;;;;;13.82;8.65;;;4.50;99.90;;;;;;4934527;29;20212;-68
2022/02/28 11:22:11;;;;;;;12.00;9.15;;;4.60;99.90;;;;;;4940772;29;20236;-68
2022/02/28 11:24:38;;;;;;;18.88;10.45;;;4.70;99.90;;;;;;4944797;29;20680;-67
2022/02/28 11:27:05;;;;;;;15.77;10.48;;;4.70;99.90;;;;;;4941392;28;20209;-68
2022/02/28 11:29:32;;;;;;;15.43;8.93;;;4.70;99.90;;;;;;4941994;29;20218;-68
2022/02/28 11:32:01;;;;;;;12.13;8.35;;;4.70;99.90;;;;;;4947196;29;20205;-68
2022/02/28 11:34:28;;;;;;;10.55;7.00;;;4.70;99.90;;;;;;4950247;28;20229;-68
2022/02/28 11:36:58;;;;;;;17.33;10.48;;;4.70;99.90;;;;;;4939565;29;20217;-68
2022/02/28 11:39:29;;;;;;;18.20;12.18;;;4.80;99.90;;;;;;4947381;28;20299;-68
2022/02/28 11:41:56;;;;;;;13.27;8.75;;;4.90;99.90;;;;;;4950234;28;20205;-68
2022/02/28 11:44:23;;;;;;;17.40;10.73;;;4.90;99.90;;;;;;4939998;29;20618;-68
2022/02/28 11:47:00;;;;;;;14.88;10.75;;;4.90;99.90;;;;;;4934158;29;20672;-68
2022/02/28 11:49:27;;;;;;;21.13;13.32;;;5.00;99.90;;;;;;4940096;29;20219;-67
2022/02/28 11:51:55;;;;;;;19.40;11.95;;;5.00;99.90;;;;;;4938347;28;20230;-68
2022/02/28 11:54:28;;;;;;;13.90;10.90;;;5.00;99.90;;;;;;4946841;29;20240;-68
2022/02/28 11:56:58;;;;;;;20.15;13.27;;;5.00;99.90;;;;;;4951456;28;20216;-68
2022/02/28 11:59:36;;;;;;;18.38;12.05;;;5.10;99.90;;;;;;4943527;28;20293;-66
2022/02/28 12:02:06;;;;;;;18.15;11.63;;;5.10;99.90;;;;;;4946221;29;20205;-67
2022/02/28 12:04:38;;;;;;;19.20;12.30;;;5.20;99.90;;;;;;4944048;28;20202;-67
2022/02/28 12:07:06;;;;;;;16.50;11.45;;;5.20;99.90;;;;;;4935663;29;20205;-67
2022/02/28 12:09:45;;;;;;;19.00;11.40;;;5.20;99.90;;;;;;4943289;29;20230;-69
2022/02/28 12:12:14;;;;;;;15.98;11.05;;;5.20;99.90;;;;;;4940390;29;20209;-68
2022/02/28 12:15:23;;;;;;;18.05;10.13;;;5.30;99.90;;;;;;4950257;28;20725;-68
2022/02/28 12:18:11;;;;;;;19.63;11.07;;;5.40;99.90;;;;;;4949008;28;20563;-68
2022/02/28 12:20:43;;;;;;;12.93;10.75;;;5.50;99.90;;;;;;4933351;29;20241;-69
2022/02/28 12:23:24;;;;;;;19.48;13.45;;;5.40;99.90;;;;;;4936196;29;20209;-68
2022/02/28 12:26:08;;;;;;;18.88;12.23;;;5.40;99.90;;;;;;4941020;28;20800;-69
2022/02/28 12:28:49;;;;;;;19.20;12.20;;;5.50;99.90;;;;;;4937388;29;20228;-68
2022/02/28 12:31:31;;;;;;;17.45;10.57;;;5.50;99.90;;;;;;4949310;28;20213;-68
2022/02/28 12:34:06;;;;;;;16.55;12.05;;;5.70;99.90;;;;;;4944192;29;20821;-66
2022/02/28 12:36:33;;;;;;;11.95;10.43;;;5.80;99.90;;;;;;4955666;28;20219;-68
2022/02/28 12:39:05;;;;;;;14.70;10.95;;;5.80;99.90;;;;;;4954885;28;20243;-67
2022/02/28 12:41:33;;;;;;;12.60;10.50;;;5.80;99.90;;;;;;4954473;28;20205;-67
2022/02/28 12:44:01;;;;;;;15.23;9.52;;;5.80;99.90;;;;;;4938195;29;20320;-67
2022/02/28 12:46:30;;;;;;;13.00;9.63;;;5.80;99.90;;;;;;4935963;29;20214;-68
2022/02/28 12:48:59;;;;;;;13.77;9.35;;;5.80;99.90;;;;;;4939211;29;20543;-68
2022/02/28 12:51:29;;;;;;;13.50;10.18;;;5.80;99.90;;;;;;4935582;29;20276;-68
2022/02/28 12:54:05;;;;;;;14.82;8.52;;;5.90;99.90;;;;;;4935438;29;20292;-69
2022/02/28 12:56:32;;;;;;;13.73;9.20;;;5.90;99.90;;;;;;4936282;29;20583;-69
2022/02/28 12:58:59;;;;;;;15.52;10.75;;;6.00;99.90;;;;;;4936045;29;20850;-69
2022/02/28 13:01:28;;;;;;;12.45;9.20;;;6.10;99.90;;;;;;4935884;29;20218;-69
2022/02/28 13:03:56;;;;;;;12.18;10.15;;;6.20;99.90;;;;;;4947239;29;20209;-69
2022/02/28 13:06:25;;;;;;;12.00;9.32;;;6.20;99.90;;;;;;4947768;28;20216;-68
2022/02/28 13:09:06;;;;;;;12.18;9.20;;;6.30;99.90;;;;;;4946019;28;20264;-68
2022/02/28 13:11:34;;;;;;;6.53;5.43;;;6.20;99.90;;;;;;4943655;29;20210;-69
2022/02/28 13:14:03;;;;;;;7.00;6.28;;;6.20;99.90;;;;;;4935712;29;20277;-69
2022/02/28 13:16:32;;;;;;;7.53;6.78;;;6.30;99.90;;;;;;4935917;29;20209;-68
2022/02/28 13:19:03;;;;;;;15.43;8.82;;;6.30;99.90;;;;;;4935356;29;20297;-68
2022/02/28 13:21:32;;;;;;;13.73;9.43;;;6.30;99.90;;;;;;4935816;29;20646;-68
2022/02/28 13:24:06;;;;;;;14.05;9.65;;;6.30;99.90;;;;;;4935651;29;20213;-68
2022/02/28 13:26:34;;;;;;;13.57;9.55;;;6.30;99.90;;;;;;4935594;29;20670;-68
2022/02/28 13:29:02;;;;;;;12.40;8.80;;;6.40;99.90;;;;;;4935357;29;20237;-68
2022/02/28 13:31:29;;;;;;;12.30;7.57;;;6.30;99.90;;;;;;4934937;29;20216;-69
2022/02/28 13:33:56;;;;;;;9.82;8.63;;;6.40;99.90;;;;;;4935460;29;20586;-68
2022/02/28 13:36:33;;;;;;;12.88;10.43;;;6.40;99.90;;;;;;4934465;29;20301;-69
2022/02/28 13:38:59;;;;;;;10.23;8.07;;;6.40;99.90;;;;;;4934703;29;20673;-69
2022/02/28 13:41:30;;;;;;;7.38;6.68;;;6.40;99.90;;;;;;4934802;29;20218;-69
2022/02/28 13:43:58;;;;;;;12.20;9.18;;;6.50;99.90;;;;;;4935437;29;20210;-69
2022/02/28 13:46:25;;;;;;;13.45;8.27;;;6.40;99.90;;;;;;4935579;29;20276;-69
2022/02/28 13:48:57;;;;;;;16.00;10.45;;;6.30;99.90;;;;;;4938668;29;20229;-69
2022/02/28 13:51:25;;;;;;;18.65;10.32;;;6.30;99.90;;;;;;4946447;28;20214;-69
2022/02/28 13:53:52;;;;;;;14.88;10.30;;;6.40;99.90;;;;;;4953919;28;20308;-69
2022/02/28 13:56:29;;;;;;;13.18;9.05;;;6.40;99.90;;;;;;4954436;28;20216;-69
2022/02/28 13:59:08;;;;;;;14.75;10.68;;;6.40;99.90;;;;;;4954188;28;20224;-69
2022/02/28 14:01:35;;;;;;;10.70;7.47;;;6.40;99.90;;;;;;4953882;28;20208;-69
2022/02/28 14:04:03;;;;;;;12.90;8.43;;;6.40;99.90;;;;;;4953835;28;20285;-69
2022/02/28 14:06:30;;;;;;;11.50;8.43;;;6.40;99.90;;;;;;4954027;28;20206;-70
2022/02/28 14:08:57;;;;;;;10.90;7.82;;;6.40;99.90;;;;;;4953204;28;20233;-68
2022/02/28 14:11:33;;;;;;;13.23;9.50;;;6.50;99.90;;;;;;4953447;28;20276;-69
2022/02/28 14:13:59;;;;;;;11.52;7.65;;;6.50;99.90;;;;;;4953487;28;20229;-68
2022/02/28 14:16:31;;;;;;;14.82;10.73;;;6.50;99.90;;;;;;4953902;28;20216;-68
2022/02/28 14:19:09;;;;;;;12.63;8.73;;;6.50;99.90;;;;;;4939254;28;20234;-69
2022/02/28 14:21:39;;;;;;;13.57;9.20;;;6.50;99.90;;;;;;4933938;29;20301;-68
2022/02/28 14:24:08;;;;;;;11.00;8.75;;;6.50;99.90;;;;;;4934049;29;20225;-68
2022/02/28 14:26:37;;;;;;;13.30;8.80;;;6.50;99.90;;;;;;4934910;29;20206;-71
2022/02/28 14:29:06;;;;;;;11.52;8.88;;;6.60;99.90;;;;;;4934522;29;20245;-68
2022/02/28 14:31:41;;;;;;;10.98;8.70;;;6.60;99.90;;;;;;4937362;29;20217;-68
2022/02/28 14:34:08;;;;;;;9.73;8.35;;;6.60;99.90;;;;;;4934355;29;20237;-69
2022/02/28 14:36:37;;;;;;;13.98;8.52;;;6.70;99.90;;;;;;4935291;29;20221;-68
2022/02/28 14:39:04;;;;;;;13.80;9.32;;;6.70;99.90;;;;;;4933623;29;20280;-68
2022/02/28 14:41:32;;;;;;;8.18;6.50;;;6.70;99.90;;;;;;4934038;29;20589;-68
2022/02/28 14:44:01;;;;;;;8.32;5.75;;;6.70;99.90;;;;;;4934134;29;20202;-69
2022/02/28 14:46:27;;;;;;;13.32;8.45;;;6.60;99.90;;;;;;4934369;29;20248;-68
2022/02/28 14:48:54;;;;;;;11.35;7.68;;;6.60;99.90;;;;;;4933276;29;20240;-69
2022/02/28 14:51:21;;;;;;;9.95;7.10;;;6.50;99.90;;;;;;4933704;29;20281;-69
2022/02/28 14:53:48;;;;;;;10.60;7.45;;;6.50;99.90;;;;;;4941288;29;20229;-69
2022/02/28 14:56:15;;;;;;;10.57;7.72;;;6.40;99.90;;;;;;4949625;29;20209;-69
2022/02/28 14:58:41;;;;;;;8.25;6.40;;;6.40;99.90;;;;;;4952733;28;20229;-68
2022/02/28 15:01:09;;;;;;;10.48;7.63;;;6.40;99.90;;;;;;4952795;28;20323;-69
2022/02/28 15:03:36;;;;;;;10.52;7.07;;;6.30;99.90;;;;;;4952862;28;20253;-68
2022/02/28 15:06:04;;;;;;;9.10;7.43;;;6.30;99.90;;;;;;4952968;28;20236;-68
2022/02/28 15:08:31;;;;;;;12.68;7.20;;;6.20;99.90;;;;;;4951880;28;20229;-69
2022/02/28 15:10:58;;;;;;;11.85;7.80;;;6.20;99.90;;;;;;4932145;29;20205;-68
2022/02/28 15:13:24;;;;;;;10.20;6.50;;;6.20;99.90;;;;;;4933575;29;20299;-69
2022/02/28 15:15:51;;;;;;;9.10;6.90;;;6.10;99.90;;;;;;4933525;29;20241;-70
2022/02/28 15:18:20;;;;;;;10.60;8.02;;;6.10;99.90;;;;;;4933446;29;20230;-69
2022/02/28 15:20:47;;;;;;;12.75;8.35;;;6.00;99.90;;;;;;4933192;29;20210;-69
2022/02/28 15:23:15;;;;;;;11.55;7.50;;;6.00;99.90;;;;;;4933931;29;20275;-70
2022/02/28 15:25:42;;;;;;;8.32;6.85;;;6.00;99.90;;;;;;4933941;29;20210;-69
2022/02/28 15:28:08;;;;;;;9.77;7.25;;;6.00;99.90;;;;;;4936208;29;20225;-69
2022/02/28 15:30:35;;;;;;;10.90;8.00;;;5.90;99.90;;;;;;4934901;29;20205;-69
2022/02/28 15:33:02;;;;;;;9.30;7.30;;;5.90;99.90;;;;;;4934732;29;20216;-68
2022/02/28 15:35:31;;;;;;;9.15;7.63;;;5.80;99.90;;;;;;4949576;29;20229;-69
2022/02/28 15:37:57;;;;;;;10.73;7.60;;;5.70;99.90;;;;;;4947090;28;20239;-68
2022/02/28 15:40:24;;;;;;;13.70;8.20;;;5.70;99.90;;;;;;4951116;28;20205;-71
2022/02/28 15:42:51;;;;;;;8.27;7.20;;;5.60;99.90;;;;;;4950952;28;20220;-69
2022/02/28 15:45:20;;;;;;;11.57;7.20;;;5.50;99.90;;;;;;4946823;28;20213;-70
2022/02/28 15:47:46;;;;;;;9.50;5.60;;;5.50;99.90;;;;;;4933351;29;20237;-70
2022/02/28 15:50:13;;;;;;;12.95;8.20;;;5.40;99.90;;;;;;4937224;29;20288;-70
2022/02/28 15:52:41;;;;;;;12.90;7.82;;;5.30;99.90;;;;;;4932997;29;20675;-70
2022/02/28 15:55:09;;;;;;;7.72;5.57;;;5.20;99.90;;;;;;4941168;29;20224;-70
2022/02/28 15:57:36;;;;;;;14.60;7.57;;;5.20;99.90;;;;;;4941219;28;20245;-69
2022/02/28 16:00:04;;;;;;;10.65;8.45;;;5.10;99.90;;;;;;4936202;28;20202;-69
2022/02/28 16:02:31;;;;;;;14.02;7.75;;;5.10;99.90;;;;;;4945706;29;20201;-70
2022/02/28 16:04:58;;;;;;;9.40;7.88;;;5.00;99.90;;;;;;4948965;28;20201;-70
2022/02/28 16:07:25;;;;;;;13.70;7.95;;;5.00;99.90;;;;;;4952021;28;20237;-71
2022/02/28 16:09:53;;;;;;;10.52;7.63;;;4.90;99.90;;;;;;4948499;29;20248;-70
2022/02/28 16:12:20;;;;;;;12.40;8.90;;;4.90;99.90;;;;;;4951992;28;20282;-70
2022/02/28 16:14:47;;;;;;;15.50;9.35;;;4.90;99.90;;;;;;4936786;29;20241;-70
2022/02/28 16:17:13;;;;;;;13.52;8.65;;;4.80;99.90;;;;;;4952059;28;20201;-70
2022/02/28 16:19:40;;;;;;;12.02;8.40;;;4.70;99.90;;;;;;4948315;28;20557;-68
2022/02/28 16:22:09;;;;;;;8.75;6.45;;;4.70;99.90;;;;;;4936580;29;20217;-69
2022/02/28 16:24:36;;;;;;;5.32;4.78;;;4.60;99.90;;;;;;4937043;29;20210;-69
2022/02/28 16:27:04;;;;;;;12.88;8.15;;;4.50;99.90;;;;;;4945941;29;20206;-69
2022/02/28 16:29:31;;;;;;;14.60;7.05;;;4.50;99.90;;;;;;4936559;29;20209;-69
2022/02/28 16:31:58;;;;;;;7.07;6.38;;;4.40;99.90;;;;;;4944772;29;20297;-68
2022/02/28 16:34:25;;;;;;;7.53;6.72;;;4.30;99.90;;;;;;4939306;28;20232;-68
2022/02/28 16:36:52;;;;;;;10.85;7.82;;;4.30;99.90;;;;;;4943839;28;20228;-69
2022/02/28 16:39:19;;;;;;;7.85;6.22;;;4.20;99.90;;;;;;4952072;29;20239;-69
2022/02/28 16:41:46;;;;;;;10.35;6.43;;;4.10;99.90;;;;;;4954832;28;20213;-70
2022/02/28 16:44:15;;;;;;;13.07;7.03;;;4.00;99.90;;;;;;4954080;28;20237;-70
2022/02/28 16:46:42;;;;;;;10.57;5.60;;;3.90;99.90;;;;;;4951802;28;20229;-70
2022/02/28 16:49:08;;;;;;;12.05;7.00;;;3.80;99.90;;;;;;4941300;28;20226;-70
2022/02/28 16:51:35;;;;;;;14.43;7.97;;;3.80;99.90;;;;;;4952733;29;20209;-69
2022/02/28 16:54:02;;;;;;;8.02;5.68;;;3.70;99.90;;;;;;4948947;28;20209;-70
2022/02/28 16:56:29;;;;;;;7.45;5.47;;;3.60;99.90;;;;;;4950514;28;20208;-69
2022/02/28 16:58:56;;;;;;;10.30;7.65;;;3.60;99.90;;;;;;4935728;29;20230;-69
2022/02/28 17:01:25;;;;;;;12.15;7.72;;;3.50;99.90;;;;;;4945541;29;20206;-69
2022/02/28 17:03:51;;;;;;;17.00;9.45;;;3.50;99.90;;;;;;4948014;28;20202;-69
2022/02/28 17:06:18;;;;;;;13.75;7.38;;;3.40;99.90;;;;;;4945897;28;20202;-69
2022/02/28 17:08:45;;;;;;;9.38;7.05;;;3.40;99.90;;;;;;4935593;29;20236;-69
2022/02/28 17:11:12;;;;;;;13.75;8.05;;;3.30;99.90;;;;;;4936012;29;20556;-69
2022/02/28 17:13:38;;;;;;;11.23;7.43;;;3.30;99.90;;;;;;4946435;28;20216;-69
2022/02/28 17:16:06;;;;;;;8.02;5.40;;;3.30;99.90;;;;;;4947707;28;20222;-69
2022/02/28 17:18:35;;;;;;;14.43;7.88;;;3.20;99.90;;;;;;4954343;28;20264;-70
2022/02/28 17:21:02;;;;;;;16.20;8.32;;;3.20;99.90;;;;;;4947628;28;20296;-70
2022/02/28 17:23:28;;;;;;;16.27;9.32;;;3.10;99.90;;;;;;4960002;28;20213;-70
2022/02/28 17:25:57;;;;;;;13.68;8.88;;;3.10;99.90;;;;;;4963266;28;20210;-70
2022/02/28 17:28:24;;;;;;;16.30;8.25;;;3.10;99.90;;;;;;4943236;28;20336;-70
2022/02/28 17:30:50;;;;;;;11.05;6.72;;;3.00;99.90;;;;;;4966126;28;20793;-70
2022/02/28 17:33:17;;;;;;;16.10;8.32;;;3.00;99.90;;;;;;4967767;28;20276;-70
2022/02/28 17:35:46;;;;;;;10.15;6.75;;;3.00;99.90;;;;;;4935610;28;20233;-69
2022/02/28 17:38:13;;;;;;;13.45;9.75;;;3.00;99.90;;;;;;4969404;28;20240;-69
2022/02/28 17:40:41;;;;;;;13.45;8.77;;;2.90;99.90;;;;;;4954772;28;20225;-69
2022/02/28 17:43:12;;;;;;;7.38;6.55;;;2.90;99.90;;;;;;4949456;28;20209;-70
2022/02/28 17:45:40;;;;;;;12.45;7.90;;;2.90;99.90;;;;;;4943070;28;20194;-70
2022/02/28 17:48:07;;;;;;;11.40;6.85;;;2.80;99.90;;;;;;4947757;28;20296;-70